Time;durP1;ratioP1;P1;durP2;ratioP2;P2;SDS_P1;SDS_P2;PMS_P1;PMS_P2;Temp;Humidity;BMP_temperature;BMP_pressure;BME280_temperature;BME280_humidity;BME280_pressure;Samples;Min_cycle;Max_cycle;Signal;HPM_P1;HPM_P2
2022/05/12 00:01:26;;;;;;;20.73;10.35;;;;;;;12.65;nan;95383.75;5089502;28;20040;-85
2022/05/12 00:03:52;;;;;;;20.75;10.77;;;;;;;14.34;nan;95653.47;5089842;28;20225;-86
2022/05/12 00:06:17;;;;;;;19.30;10.40;;;;;;;12.73;nan;95370.63;5095884;28;20062;-86
2022/05/12 00:08:43;;;;;;;18.60;9.68;;;;;;;14.97;nan;95710.06;5086417;28;20043;-86
2022/05/12 00:11:08;;;;;;;19.55;10.52;;;;;;;12.54;nan;95345.00;5102742;28;20114;-87
2022/05/12 00:13:34;;;;;;;24.23;10.45;;;;;;;12.34;nan;95397.31;5103054;28;20051;-86
2022/05/12 00:16:00;;;;;;;22.42;11.80;;;;;;;12.74;nan;95420.09;5093356;28;20046;-86
2022/05/12 00:18:26;;;;;;;21.98;11.13;;;;;;;14.87;nan;95744.94;5095256;28;20040;-86
2022/05/12 00:20:52;;;;;;;21.10;11.73;;;;;;;12.80;nan;95426.19;5107185;28;20061;-86
2022/05/12 00:23:23;;;;;;;23.63;11.30;;;;;;;14.52;nan;95658.06;5114439;28;20031;-86
2022/05/12 00:25:50;;;;;;;18.25;12.23;;;;;;;12.63;nan;95356.63;5113053;28;20103;-86
2022/05/12 00:28:18;;;;;;;17.58;11.95;;;;;;;14.95;nan;95730.94;5109591;28;20042;-86
2022/05/12 00:30:46;;;;;;;31.20;12.55;;;;;;;13.29;nan;95487.19;5081784;28;20505;-86
2022/05/12 00:33:12;;;;;;;18.98;11.93;;;;;;;12.90;nan;95398.66;5090123;28;20034;-86
2022/05/12 00:35:39;;;;;;;22.20;12.73;;;;;;;14.88;nan;95693.88;5102168;28;20437;-86
2022/05/12 00:38:04;;;;;;;30.80;12.32;;;;;;;12.68;nan;95385.84;5101853;28;20039;-86
2022/05/12 00:40:30;;;;;;;17.42;11.27;;;;;;;14.78;nan;95715.41;5092221;28;20126;-86
2022/05/12 00:43:02;;;;;;;18.10;11.93;;;;;;;12.26;nan;95347.41;5092277;28;20448;-86
2022/05/12 00:45:30;;;;;;;25.17;12.10;;;;;;;12.77;nan;95392.94;5092232;28;20125;-86
2022/05/12 00:47:56;;;;;;;31.67;12.55;;;;;;;14.18;nan;95604.84;5092498;28;20313;-86
2022/05/12 00:50:29;;;;;;;23.90;12.75;;;;;;;14.82;nan;95711.06;5099064;28;20042;-86
2022/05/12 00:52:56;;;;;;;22.70;12.55;;;;;;;14.39;nan;95672.09;5098458;28;20075;-86
2022/05/12 00:55:30;;;;;;;21.20;12.25;;;;;;;13.34;nan;95478.38;5090675;28;20417;-86
2022/05/12 00:57:57;;;;;;;20.23;12.60;;;;;;;12.12;nan;95293.28;5091809;28;20035;-86
2022/05/12 01:00:23;;;;;;;24.70;12.73;;;;;;;14.88;nan;95722.47;5099497;28;20097;-86
2022/05/12 01:02:55;;;;;;;25.42;12.05;;;;;;;12.82;nan;95417.88;5085987;28;20036;-86
2022/05/12 01:05:23;;;;;;;21.20;11.20;;;;;;;14.91;nan;95733.38;5093574;28;20036;-86
2022/05/12 01:07:51;;;;;;;20.73;11.38;;;;;;;14.12;nan;95613.94;5089870;28;20416;-86
2022/05/12 01:10:18;;;;;;;26.05;11.98;;;;;;;14.68;nan;95727.00;5061539;28;20048;-86
2022/05/12 01:12:45;;;;;;;19.88;12.70;;;;;;;15.04;nan;95738.00;5030134;28;20046;-85
2022/05/12 01:15:12;;;;;;;22.98;10.95;;;;;;;14.35;nan;95642.47;5038353;28;20055;-85
2022/05/12 01:17:37;;;;;;;19.52;11.00;;;;;;;14.66;nan;95721.13;5047476;28;20036;-85
2022/05/12 01:20:04;;;;;;;18.40;10.52;;;;;;;12.22;nan;95362.31;5073754;28;20484;-85
2022/05/12 01:22:39;;;;;;;23.77;10.48;;;;;;;14.73;nan;95739.47;5071063;28;20044;-85
2022/05/12 01:25:14;;;;;;;18.70;9.52;;;;;;;14.04;nan;95625.25;5088074;28;20162;-85
2022/05/12 01:27:42;;;;;;;18.60;9.60;;;;;;;14.50;nan;95730.41;5087979;28;20044;-85
2022/05/12 01:30:09;;;;;;;22.83;10.18;;;;;;;12.76;nan;95471.19;5070666;28;20039;-85
2022/05/12 01:32:35;;;;;;;17.23;9.25;;;;;;;13.14;nan;95557.38;5070749;28;20028;-86
2022/05/12 01:35:01;;;;;;;22.02;9.52;;;;;;;11.91;nan;95408.78;5087560;28;20154;-85
2022/05/12 01:37:26;;;;;;;20.38;9.10;;;;;;;9.32;nan;95000.72;5091372;28;20040;-85
2022/05/12 01:39:52;;;;;;;17.88;9.63;;;;;;;12.62;nan;95530.63;5081719;28;20078;-86
2022/05/12 01:42:18;;;;;;;21.88;9.18;;;;;;;13.81;nan;95730.78;5111149;28;20040;-86
2022/05/12 01:44:44;;;;;;;15.60;10.10;;;;;;;13.85;nan;95700.63;5091963;28;20329;-85
2022/05/12 01:47:11;;;;;;;15.85;9.43;;;;;;;14.30;nan;95752.75;5071481;28;20036;-86
2022/05/12 01:49:37;;;;;;;16.83;10.75;;;;;;;13.10;nan;95584.84;5070870;28;20226;-85
2022/05/12 01:52:04;;;;;;;15.30;9.60;;;;;;;11.47;nan;95311.28;5070046;28;20488;-86
2022/05/12 01:54:30;;;;;;;19.73;9.25;;;;;;;11.61;nan;95316.75;5070035;28;20044;-86
2022/05/12 01:56:57;;;;;;;15.05;9.60;;;;;;;14.26;nan;95745.59;5088187;28;20051;-86
2022/05/12 01:59:23;;;;;;;16.65;9.48;;;;;;;12.40;nan;95447.81;5070519;28;20150;-85
2022/05/12 02:01:49;;;;;;;13.82;9.32;;;;;;;14.03;nan;95722.34;5070094;28;20036;-86
2022/05/12 02:04:15;;;;;;;22.20;9.30;;;;;;;13.30;nan;95589.22;5088340;28;20545;-85
2022/05/12 02:06:42;;;;;;;13.77;8.85;;;;;;;11.81;nan;95369.00;5087954;28;20048;-86
2022/05/12 02:09:08;;;;;;;17.92;9.18;;;;;;;14.27;nan;95752.50;5069950;28;20473;-86
2022/05/12 02:11:34;;;;;;;17.05;8.88;;;;;;;13.76;nan;95694.31;5069868;28;20482;-86
2022/05/12 02:14:00;;;;;;;14.98;8.95;;;;;;;14.25;nan;95758.13;5088248;28;20044;-86
2022/05/12 02:16:26;;;;;;;18.45;10.10;;;;;;;12.65;nan;95493.63;5088639;28;20110;-86
2022/05/12 02:18:52;;;;;;;18.33;9.00;;;;;;;13.34;nan;95617.69;5087965;28;20126;-85
2022/05/12 02:21:19;;;;;;;19.30;8.90;;;;;;;11.29;nan;95287.25;5088724;28;20040;-86
2022/05/12 02:23:44;;;;;;;18.17;9.10;;;;;;;13.72;nan;95673.84;5088489;28;20040;-85
2022/05/12 02:26:10;;;;;;;14.63;7.97;;;;;;;11.52;nan;95376.84;5088204;28;20105;-86
2022/05/12 02:28:36;;;;;;;21.23;9.18;;;;;;;13.73;nan;95710.88;5070057;28;20036;-86
2022/05/12 02:31:02;;;;;;;14.52;7.63;;;;;;;12.39;nan;95462.97;5070063;28;20119;-86
2022/05/12 02:33:27;;;;;;;20.08;8.57;;;;;;;10.90;nan;95273.91;5069906;28;20127;-86
2022/05/12 02:35:53;;;;;;;20.80;8.75;;;;;;;11.23;nan;95316.47;5069972;28;20040;-86
2022/05/12 02:38:19;;;;;;;18.15;8.38;;;;;;;13.15;nan;95638.09;5086710;28;20048;-86
2022/05/12 02:40:45;;;;;;;16.77;8.52;;;;;;;10.60;nan;95211.97;5069783;28;20039;-85
2022/05/12 02:43:26;;;;;;;16.02;8.18;;;;;;;12.86;nan;95599.94;5086523;28;20587;-86
2022/05/12 02:46:08;;;;;;;12.80;7.88;;;;;;;14.01;nan;95764.50;5076327;28;20041;-86
2022/05/12 02:48:38;;;;;;;15.70;7.80;;;;;;;13.95;nan;95768.28;5066361;28;20051;-85
2022/05/12 02:51:04;;;;;;;15.95;9.07;;;;;;;13.05;nan;95654.88;5049585;28;20147;-86
2022/05/12 02:53:30;;;;;;;11.57;8.00;;;;;;;11.61;nan;95415.84;5054392;28;20063;-86
2022/05/12 02:55:57;;;;;;;14.75;8.50;;;;;;;13.76;nan;95730.84;5068771;28;20033;-86
2022/05/12 02:58:23;;;;;;;13.85;8.30;;;;;;;11.78;nan;95491.78;5077949;28;20040;-86
2022/05/12 03:00:48;;;;;;;15.65;8.23;;;;;;;13.82;nan;95770.50;5067246;28;20040;-86
2022/05/12 03:03:14;;;;;;;15.35;8.27;;;;;;;9.22;nan;95086.25;5062269;28;20120;-85
2022/05/12 03:05:40;;;;;;;24.17;8.65;;;;;;;13.54;nan;95723.28;5054526;28;20044;-86
2022/05/12 03:08:07;;;;;;;29.67;8.13;;;;;;;13.05;nan;95654.88;5072635;28;20036;-86
2022/05/12 03:10:36;;;;;;;17.88;9.05;;;;;;;13.23;nan;95719.25;5072937;28;20509;-86
2022/05/12 03:13:03;;;;;;;18.17;9.00;;;;;;;11.30;nan;95379.88;5072940;28;20127;-86
2022/05/12 03:15:29;;;;;;;16.92;8.20;;;;;;;11.51;nan;95413.25;5073571;28;20130;-86
2022/05/12 03:17:55;;;;;;;25.25;9.88;;;;;;;11.16;nan;95392.16;5091257;28;20135;-85
2022/05/12 03:20:24;;;;;;;19.65;8.10;;;;;;;12.15;nan;95523.22;5090825;28;20046;-85
2022/05/12 03:22:50;;;;;;;15.85;8.07;;;;;;;11.10;nan;95393.25;5073323;28;20032;-86
2022/05/12 03:25:17;;;;;;;29.80;10.30;;;;;;;11.82;nan;95472.38;5091156;28;20090;-86
2022/05/12 03:27:43;;;;;;;25.42;8.65;;;;;;;13.13;nan;95672.19;5072803;28;20040;-86
2022/05/12 03:30:15;;;;;;;19.58;9.60;;;;;;;12.27;nan;95555.59;5074526;28;20112;-86
2022/05/12 03:32:41;;;;;;;19.45;8.48;;;;;;;12.99;nan;95693.28;5090807;28;20063;-86
2022/05/12 03:35:07;;;;;;;15.27;7.88;;;;;;;12.98;nan;95718.31;5072502;28;20044;-86
2022/05/12 03:37:33;;;;;;;11.98;7.05;;;;;;;12.53;nan;95636.03;5072382;28;20032;-86
2022/05/12 03:39:59;;;;;;;13.55;7.15;;;;;;;12.73;nan;95729.09;5072673;28;20032;-86
2022/05/12 03:42:25;;;;;;;18.25;7.05;;;;;;;12.67;nan;95683.06;5072419;28;20055;-86
2022/05/12 03:44:50;;;;;;;14.80;7.85;;;;;;;12.64;nan;95678.31;5090601;28;20044;-86
2022/05/12 03:47:25;;;;;;;15.02;7.53;;;;;;;11.48;nan;95463.44;5089061;28;20040;-85
2022/05/12 03:49:57;;;;;;;19.00;7.13;;;;;;;13.77;nan;95815.88;5072842;28;20036;-86
2022/05/12 03:52:23;;;;;;;17.10;7.85;;;;;;;13.59;nan;95781.06;5072168;28;20525;-86
2022/05/12 03:54:49;;;;;;;14.05;6.80;;;;;;;13.09;nan;95690.56;5072183;28;20040;-85
2022/05/12 03:57:16;;;;;;;17.85;6.40;;;;;;;13.11;nan;95699.06;5071576;28;20044;-86
2022/05/12 03:59:41;;;;;;;16.98;7.88;;;;;;;12.98;nan;95690.88;5089756;28;20035;-86
2022/05/12 04:02:13;;;;;;;19.45;6.82;;;;;;;13.29;nan;95748.25;5072705;28;20055;-86
2022/05/12 04:04:41;;;;;;;;;;;;;;;13.98;nan;95813.84;5069522;28;20040;-87
2022/05/12 04:07:07;;;;;;;11.00;7.10;;;;;;;13.67;nan;95769.81;5061345;28;19920;-86
2022/05/12 04:09:32;;;;;;;15.52;6.88;;;;;;;13.43;nan;95749.22;5069860;28;20108;-86
2022/05/12 04:11:58;;;;;;;14.32;7.30;;;;;;;11.91;nan;95512.44;5083497;28;20044;-85
2022/05/12 04:14:23;;;;;;;17.52;7.93;;;;;;;13.56;nan;95768.31;5084023;28;20036;-85
2022/05/12 04:16:49;;;;;;;18.88;7.38;;;;;;;13.97;nan;95819.44;5077871;28;20558;-86
2022/05/12 04:19:15;;;;;;;14.70;7.93;;;;;;;13.53;nan;95745.69;5086853;28;20079;-86
2022/05/12 04:21:41;;;;;;;17.45;7.55;;;;;;;13.34;nan;95713.59;5063581;28;20424;-86
2022/05/12 04:24:08;;;;;;;17.52;8.77;;;;;;;11.36;nan;95380.66;5084303;28;20093;-87
2022/05/12 04:26:39;;;;;;;15.52;8.60;;;;;;;12.19;nan;95543.69;5073045;28;20126;-87
2022/05/12 04:29:08;;;;;;;17.25;8.50;;;;;;;10.63;nan;95268.97;5063064;28;20063;-86
2022/05/12 04:31:33;;;;;;;16.08;7.57;;;;;;;10.82;nan;95338.94;5061422;28;20048;-86
2022/05/12 04:36:42;;;;;;;22.42;8.30;;;;;;;12.68;nan;95553.47;5073481;28;20631;-84
2022/05/12 04:39:08;;;;;;;21.55;8.43;;;;;;;12.93;nan;95595.88;5071737;28;20036;-87
2022/05/12 04:41:35;;;;;;;33.97;9.73;;;;;;;9.78;nan;95120.53;5062720;28;20067;-86
2022/05/12 04:44:05;;;;;;;27.63;10.63;;;;;;;10.67;nan;95243.50;5065503;28;20039;-84
2022/05/12 04:46:31;;;;;;;17.15;8.48;;;;;;;9.45;nan;95066.38;5065594;28;20043;-86
2022/05/12 04:48:56;;;;;;;26.52;9.93;;;;;;;14.01;nan;95749.28;5077505;28;20272;-85
2022/05/12 04:51:22;;;;;;;22.67;9.05;;;;;;;12.62;nan;95509.34;5064667;28;20039;-83
2022/05/12 04:53:48;;;;;;;31.98;9.57;;;;;;;12.41;nan;95476.78;5068281;28;20181;-84
2022/05/12 04:56:15;;;;;;;23.55;9.30;;;;;;;13.17;nan;95576.56;5065126;28;20044;-85
2022/05/12 04:58:40;;;;;;;23.65;9.57;;;;;;;14.00;nan;95701.56;5062793;28;20071;-86
2022/05/12 05:01:12;;;;;;;32.80;10.45;;;;;;;15.04;nan;95929.53;5060636;28;20256;-86
2022/05/12 05:03:38;;;;;;;25.73;10.05;;;;;;;9.94;nan;95102.75;5064074;28;20055;-86
2022/05/12 05:06:04;;;;;;;18.05;10.75;;;;;;;13.17;nan;95608.50;5055308;28;20256;-85
2022/05/12 05:08:29;;;;;;;16.58;9.95;;;;;;;12.93;nan;95568.47;5060423;28;20108;-84
2022/05/12 05:10:55;;;;;;;22.90;10.93;;;;;;;12.28;nan;95509.34;5057293;28;20123;-84
2022/05/12 05:13:22;;;;;;;34.03;10.43;;;;;;;13.59;nan;95637.16;5057036;28;20047;-85
2022/05/12 05:15:49;;;;;;;31.52;11.40;;;;;;;12.37;nan;95426.00;5065206;28;20597;-86
2022/05/12 05:18:17;;;;;;;21.60;12.10;;;;;;;14.48;nan;95743.25;5055797;28;20066;-85
2022/05/12 05:20:44;;;;;;;23.73;11.82;;;;;;;15.22;nan;95858.53;5075770;28;20563;-85
2022/05/12 05:23:12;;;;;;;22.95;11.80;;;;;;;15.33;nan;95858.13;5062778;28;20089;-84
2022/05/12 05:25:38;;;;;;;24.15;11.73;;;;;;;15.39;nan;95858.88;5045922;28;20514;-84
2022/05/12 05:28:05;;;;;;;24.85;11.77;;;;;;;14.78;nan;95792.84;5075296;28;20749;-85
2022/05/12 05:30:30;;;;;;;20.60;11.25;;;;;;;15.36;nan;95857.56;5071509;28;20115;-85
2022/05/12 05:32:56;;;;;;;29.85;12.75;;;;;;;14.59;nan;95715.34;5058751;28;20039;-85
2022/05/12 05:35:22;;;;;;;18.35;11.13;;;;;;;13.88;nan;95624.66;5062866;28;20044;-85
2022/05/12 05:37:52;;;;;;;28.92;12.68;;;;;;;14.73;nan;95768.84;5075641;28;20043;-85
2022/05/12 05:40:21;;;;;;;28.98;12.20;;;;;;;15.09;nan;95784.44;5057929;28;20086;-84
2022/05/12 05:42:47;;;;;;;20.83;12.00;;;;;;;14.98;nan;95773.09;5074696;28;20032;-84
2022/05/12 05:45:15;;;;;;;22.98;11.32;;;;;;;15.68;nan;95850.75;5078843;28;20432;-84
2022/05/12 05:47:45;;;;;;;21.05;12.20;;;;;;;15.02;nan;95745.53;5068837;28;20075;-85
2022/05/12 05:50:13;;;;;;;23.75;12.73;;;;;;;15.76;nan;95858.94;5060362;28;20044;-85
2022/05/12 05:55:22;;;;;;;38.72;12.45;;;;;;;11.44;nan;95171.06;5074119;28;20047;-84
2022/05/12 05:57:49;;;;;;;27.67;12.88;;;;;;;13.88;nan;95550.75;5073116;28;20510;-84
2022/05/12 06:00:15;;;;;;;21.95;11.45;;;;;;;13.61;nan;95526.56;5056855;28;20066;-85
2022/05/12 06:02:41;;;;;;;27.45;12.88;;;;;;;15.59;nan;95823.88;5075037;28;20359;-86
2022/05/12 06:05:07;;;;;;;27.83;13.80;;;;;;;15.56;nan;95811.09;5057838;28;20047;-85
2022/05/12 06:07:38;;;;;;;35.00;13.50;;;;;;;12.41;nan;95303.13;5074874;28;20141;-84
2022/05/12 06:10:06;;;;;;;30.80;14.68;;;;;;;11.73;nan;95229.56;5068776;28;20043;-84
2022/05/12 06:12:32;;;;;;;27.88;12.90;;;;;;;12.30;nan;95294.44;5059733;28;20044;-83
2022/05/12 06:14:59;;;;;;;28.13;12.77;;;;;;;15.08;nan;95687.50;5067679;28;21380;-84
2022/05/12 06:17:24;;;;;;;27.13;12.70;;;;;;;16.14;nan;95880.31;5056041;28;20350;-85
2022/05/12 06:19:50;;;;;;;25.45;12.90;;;;;;;15.27;nan;95728.34;5059312;28;20426;-86
2022/05/12 06:22:19;;;;;;;19.95;12.45;;;;;;;15.09;nan;95683.75;5058784;28;20716;-86
2022/05/12 06:24:45;;;;;;;21.50;14.02;;;;;;;13.29;nan;95406.50;5050277;28;20084;-86
2022/05/12 06:27:11;;;;;;;24.27;12.73;;;;;;;13.37;nan;95376.56;5055026;28;20202;-87
2022/05/12 06:29:36;;;;;;;26.50;13.30;;;;;;;16.02;nan;95799.72;5070491;28;20287;-87
2022/05/12 06:32:03;;;;;;;31.27;13.73;;;;;;;16.08;nan;95812.72;5049670;28;20048;-86
2022/05/12 06:34:29;;;;;;;27.20;14.10;;;;;;;15.41;nan;95705.13;5049974;28;20542;-86
2022/05/12 06:36:56;;;;;;;23.42;13.60;;;;;;;15.65;nan;95739.03;5075851;28;20032;-86
2022/05/12 06:39:22;;;;;;;34.22;15.05;;;;;;;16.47;nan;95857.03;5064858;28;20048;-86
2022/05/12 06:41:47;;;;;;;56.35;14.45;;;;;;;15.91;nan;95790.25;5063048;28;20108;-86
2022/05/12 06:44:13;;;;;;;32.25;13.52;;;;;;;15.48;nan;95714.69;5064422;28;20032;-86
2022/05/12 06:46:39;;;;;;;26.45;14.70;;;;;;;15.87;nan;95778.56;5081917;28;20031;-87
2022/05/12 06:49:05;;;;;;;24.90;13.68;;;;;;;15.64;nan;95710.72;5080690;28;20062;-87
2022/05/12 06:51:30;;;;;;;29.17;15.27;;;;;;;15.38;nan;95686.25;5081777;28;20115;-87
2022/05/12 06:53:56;;;;;;;31.80;15.68;;;;;;;16.45;nan;95827.06;5070369;28;20789;-86
2022/05/12 06:56:21;;;;;;;34.60;17.13;;;;;;;14.57;nan;95570.69;5077453;28;20066;-86
2022/05/12 06:58:47;;;;;;;37.67;16.02;;;;;;;14.50;nan;95546.25;5075218;28;20105;-86
2022/05/12 07:01:12;;;;;;;31.08;16.35;;;;;;;15.22;nan;95634.91;5054710;28;20375;-85
2022/05/12 07:03:41;;;;;;;26.90;15.07;;;;;;;15.02;nan;95611.97;5057918;28;20501;-85
2022/05/12 07:06:07;;;;;;;28.40;14.55;;;;;;;16.06;nan;95733.81;5072715;28;20611;-86
2022/05/12 07:08:43;;;;;;;29.65;15.93;;;;;;;14.12;nan;95429.94;5062727;28;20047;-86
2022/05/12 07:11:10;;;;;;;34.20;15.75;;;;;;;16.75;nan;95845.31;5058229;28;20068;-87
2022/05/12 07:13:36;;;;;;;27.23;14.75;;;;;;;16.35;nan;95787.09;5059342;28;20733;-85
2022/05/12 07:16:03;;;;;;;27.23;15.38;;;;;;;16.49;nan;95777.19;5044184;28;20039;-86
2022/05/12 07:18:29;;;;;;;32.10;15.32;;;;;;;16.64;nan;95846.56;5054481;28;20028;-85
2022/05/12 07:26:39;;;;;;;38.88;15.98;;;;;;;16.55;nan;95747.34;5074479;28;20050;-86
2022/05/12 07:29:16;;;;;;;30.40;16.23;;;;;;;17.21;nan;95831.03;5075604;28;20035;-87
2022/05/12 07:31:43;;;;;;;29.77;16.10;;;;;;;15.06;nan;95505.34;5056276;28;20434;-85
2022/05/12 07:34:09;;;;;;;35.53;16.55;;;;;;;15.32;nan;95540.44;5054731;28;20050;-86
2022/05/12 07:36:43;;;;;;;37.38;16.10;;;;;;;15.50;nan;95541.44;5057214;28;20036;-86
2022/05/12 07:39:11;;;;;;;39.75;17.63;;;;;;;15.04;nan;95470.09;5071923;28;20040;-86
2022/05/12 07:41:41;;;;;;;35.45;16.38;;;;;;;16.92;nan;95742.94;5062375;28;20190;-88
2022/05/12 07:44:13;;;;;;;34.95;16.75;;;;;;;16.52;nan;95680.22;5052389;28;20339;-86
2022/05/12 07:46:39;;;;;;;36.97;17.20;;;;;;;17.44;nan;95813.91;5067720;28;20969;-87
2022/05/12 07:49:04;;;;;;;30.77;16.60;;;;;;;17.02;nan;95715.91;5076117;28;20036;-87
2022/05/12 07:51:30;;;;;;;26.65;15.25;;;;;;;17.19;nan;95708.03;5073416;28;20040;-86
2022/05/12 07:53:56;;;;;;;28.50;15.18;;;;;;;17.38;nan;95720.50;5050302;28;20043;-85
2022/05/12 07:56:25;;;;;;;32.17;15.63;;;;;;;16.59;nan;95589.59;5065028;28;20104;-85
2022/05/12 07:58:52;;;;;;;35.60;15.57;;;;;;;15.22;nan;95391.78;5069174;28;20122;-85
2022/05/12 08:01:19;;;;;;;37.78;16.25;;;;;;;14.77;nan;95349.91;5073627;28;20040;-86
2022/05/12 08:03:45;;;;;;;30.38;14.93;;;;;;;13.42;nan;95078.19;5054339;28;20058;-87
2022/05/12 08:06:12;;;;;;;29.10;15.43;;;;;;;17.18;nan;95679.63;5055204;28;20052;-86
2022/05/12 08:08:38;;;;;;;27.45;14.88;;;;;;;16.94;nan;95629.00;5060123;28;20432;-86
2022/05/12 08:11:07;;;;;;;22.80;14.70;;;;;;;17.43;nan;95664.06;5051150;28;20054;-86
2022/05/12 08:13:33;;;;;;;27.52;15.88;;;;;;;17.34;nan;95661.31;5069262;28;20094;-86
2022/05/12 08:16:00;;;;;;;24.98;14.73;;;;;;;16.94;nan;95562.00;5065512;28;20036;-86
2022/05/12 08:18:26;;;;;;;33.47;15.50;;;;;;;18.15;nan;95741.75;5062901;28;20591;-87
2022/05/12 08:20:54;;;;;;;30.40;15.25;;;;;;;16.50;nan;95516.41;5071062;28;20044;-85
2022/05/12 08:23:22;;;;;;;35.10;15.50;;;;;;;16.96;nan;95543.75;5056538;28;20039;-87
2022/05/12 08:25:48;;;;;;;31.30;15.02;;;;;;;17.99;nan;95698.41;5075617;28;20040;-87
2022/05/12 08:28:17;;;;;;;29.80;14.32;;;;;;;17.96;nan;95710.53;5067065;28;20067;-87
2022/05/12 08:30:46;;;;;;;24.75;13.45;;;;;;;16.63;nan;95472.00;5074857;28;20597;-87
2022/05/12 08:33:13;;;;;;;21.35;12.10;;;;;;;16.74;nan;95479.47;5070311;28;20534;-86
2022/05/12 08:36:00;;;;;;;23.75;12.77;;;;;;;16.77;nan;95451.28;5058317;28;20055;-88
2022/05/12 08:38:40;;;;;;;;;;;;;;;;;;;;;
2022/05/12 08:41:21;;;;;;;27.75;12.88;;;;;;;17.28;nan;95526.63;5074425;28;20046;-85
2022/05/12 08:43:58;;;;;;;26.70;11.55;;;;;;;19.20;nan;95794.50;5056847;28;20771;-88
2022/05/12 08:46:35;;;;;;;18.63;11.57;;;;;;;16.20;nan;95309.16;5074929;28;20044;-87
2022/05/12 08:49:18;;;;;;;26.60;11.38;;;;;;;15.62;nan;95216.44;5060943;28;20542;-86
2022/05/12 08:51:49;;;;;;;30.80;10.68;;;;;;;18.76;nan;95747.13;5056868;28;20040;-83
2022/05/12 08:54:25;;;;;;;19.73;9.05;;;;;;;17.35;nan;95532.34;5074755;28;20051;-86
2022/05/12 08:57:02;;;;;;;18.02;8.23;;;;;;;16.30;nan;95342.91;5057454;28;20048;-86
2022/05/12 08:59:32;;;;;;;19.42;8.27;;;;;;;14.98;nan;95137.47;5068835;28;20267;-87
2022/05/12 09:02:10;;;;;;;24.70;10.05;;;;;;;19.60;nan;95791.75;5072992;28;20047;-86
2022/05/12 09:04:59;;;;;;;31.13;9.23;;;;;;;16.02;nan;95217.31;5060376;28;20817;-86
2022/05/12 09:07:46;;;;;;;15.10;6.07;;;;;;;16.76;nan;95319.28;5066998;28;20044;-85
2022/05/12 09:10:34;;;;;;;13.68;6.63;;;;;;;19.85;nan;95784.78;5079292;28;20036;-87
2022/05/12 09:13:05;;;;;;;11.82;5.70;;;;;;;16.04;nan;95212.44;5063283;28;20131;-85
2022/05/12 09:15:37;;;;;;;10.60;5.00;;;;;;;18.60;nan;95651.94;5060077;28;20040;-87
2022/05/12 09:18:12;;;;;;;8.43;5.38;;;;;;;17.16;nan;95395.09;5075069;28;20480;-86
2022/05/12 09:20:40;;;;;;;9.55;5.10;;;;;;;16.66;nan;95316.84;5057107;28;20040;-87
2022/05/12 09:23:06;;;;;;;15.60;5.75;;;;;;;16.10;nan;95184.47;5061360;28;20246;-86
2022/05/12 09:25:47;;;;;;;9.55;4.70;;;;;;;17.58;nan;95411.63;5060886;28;20028;-86
2022/05/12 09:28:28;;;;;;;13.68;5.65;;;;;;;18.76;nan;95572.47;5058804;28;20068;-86
2022/05/12 09:31:01;;;;;;;9.65;4.43;;;;;;;18.20;nan;95486.59;5073974;28;20039;-86
2022/05/12 09:33:37;;;;;;;13.75;5.38;;;;;;;19.51;nan;95676.06;5074175;28;20135;-83
2022/05/12 09:36:09;;;;;;;16.25;5.40;;;;;;;20.26;nan;95781.56;5058527;28;20039;-84
2022/05/12 09:38:54;;;;;;;11.93;4.97;;;;;;;19.52;nan;95669.59;5051443;28;20044;-85
2022/05/12 09:41:24;;;;;;;13.32;5.50;;;;;;;16.39;nan;95205.38;5060564;28;20492;-86
2022/05/12 09:43:51;;;;;;;10.23;5.50;;;;;;;16.48;nan;95147.28;5057244;28;20032;-86
2022/05/12 09:46:23;;;;;;;10.52;4.85;;;;;;;21.25;nan;95774.91;5061408;28;20040;-85
2022/05/12 09:48:52;;;;;;;10.40;4.78;;;;;;;20.76;nan;95566.94;5079799;28;20533;-83
2022/05/12 09:51:34;;;;;;;8.55;4.13;;;;;;;23.24;nan;95773.81;5064469;28;20043;-85
2022/05/12 09:54:33;;;;;;;6.53;3.78;;;;;;;23.83;nan;95766.72;5050852;28;20090;-85
2022/05/12 09:57:12;;;;;;;15.32;4.75;;;;;;;23.13;nan;95483.19;5064935;28;20071;-84
2022/05/12 09:59:38;;;;;;;8.63;4.38;;;;;;;23.84;nan;95550.84;5091434;28;20043;-83
2022/05/12 10:02:05;;;;;;;6.22;3.90;;;;;;;26.24;nan;95754.72;5077382;28;20122;-84
2022/05/12 10:10:26;;;;;;;10.23;3.60;;;;;;;26.50;nan;95743.97;5076751;28;20382;-86
2022/05/12 10:12:58;;;;;;;9.82;3.85;;;;;;;24.93;nan;95490.28;5067649;28;20035;-87
2022/05/12 10:15:34;;;;;;;4.88;3.40;;;;;;;26.08;nan;95644.16;5066765;28;20540;-85
2022/05/12 10:18:10;;;;;;;6.22;3.08;;;;;;;26.07;nan;95609.97;5081910;28;20459;-88
2022/05/12 10:20:43;;;;;;;12.50;3.67;;;;;;;25.48;nan;95433.13;5078621;28;20071;-86
2022/05/12 10:23:45;;;;;;;6.53;3.63;;;;;;;26.41;nan;95596.56;5069251;28;20035;-86
2022/05/12 10:26:29;;;;;;;3.90;3.33;;;;;;;28.05;nan;95733.88;5052894;28;20087;-89
2022/05/12 10:29:00;;;;;;;6.20;3.33;;;;;;;28.34;nan;95733.06;5055421;28;20064;-88
2022/05/12 10:31:34;;;;;;;9.13;3.37;;;;;;;28.51;nan;95725.44;5056598;28;20431;-85
2022/05/12 10:34:37;;;;;;;5.28;2.72;;;;;;;27.89;nan;95725.13;5056636;28;20740;-84
2022/05/12 10:37:21;;;;;;;7.65;2.88;;;;;;;27.80;nan;95719.94;5052649;28;20657;-84
2022/05/12 10:39:50;;;;;;;6.13;2.83;;;;;;;27.60;nan;95716.59;5032469;28;20048;-83
2022/05/12 10:42:24;;;;;;;7.05;3.60;;;;;;;27.44;nan;95709.72;5038556;28;20078;-86
2022/05/12 10:45:09;;;;;;;9.18;3.33;;;;;;;27.93;nan;95693.22;5047181;28;20043;-84
2022/05/12 10:48:09;;;;;;;4.35;2.70;;;;;;;27.52;nan;95635.09;5049502;28;20044;-83
2022/05/12 10:51:02;;;;;;;7.00;2.88;;;;;;;27.84;nan;95709.09;5042746;28;20071;-82
2022/05/12 10:54:09;;;;;;;5.55;3.08;;;;;;;27.61;nan;95699.09;5045840;28;20040;-85
2022/05/12 10:56:47;;;;;;;6.88;2.75;;;;;;;27.84;nan;95690.03;5057834;28;20127;-86
2022/05/12 10:59:34;;;;;;;5.65;2.70;;;;;;;27.82;nan;95638.59;5047053;28;20158;-84
2022/05/12 11:02:28;;;;;;;5.53;2.53;;;;;;;27.95;nan;95674.56;5046068;28;20094;-85
2022/05/12 11:05:29;;;;;;;5.43;2.63;;;;;;;28.41;nan;95685.97;5057616;28;20620;-85
2022/05/12 11:08:09;;;;;;;6.93;2.65;;;;;;;27.91;nan;95559.25;5062900;28;20036;-83
2022/05/12 11:10:58;;;;;;;7.55;3.45;;;;;;;28.51;nan;95583.56;5046295;28;20482;-85
2022/05/12 11:13:48;;;;;;;7.38;3.10;;;;;;;28.84;nan;95667.28;5045573;28;20068;-85
2022/05/12 11:16:18;;;;;;;5.10;2.53;;;;;;;28.23;nan;95652.28;5044799;28;20037;-84
2022/05/12 11:19:07;;;;;;;5.75;2.42;;;;;;;28.51;nan;95670.88;5041345;28;20111;-85
2022/05/12 11:21:58;;;;;;;7.82;2.80;;;;;;;28.30;nan;95586.91;5056683;28;20051;-86
2022/05/12 11:24:49;;;;;;;11.13;3.47;;;;;;;28.67;nan;95661.28;5058065;28;20040;-84
2022/05/12 11:27:43;;;;;;;10.90;4.32;;;;;;;28.61;nan;95664.72;5057810;28;20208;-86
2022/05/12 11:30:31;;;;;;;5.25;2.97;;;;;;;28.23;nan;95617.59;5059547;28;20079;-86
2022/05/12 11:33:32;;;;;;;3.78;2.25;;;;;;;27.10;nan;95330.44;5062042;28;20430;-88
2022/05/12 11:35:58;;;;;;;10.27;3.10;;;;;;;28.77;nan;95606.00;5018838;28;20128;-87
2022/05/12 11:38:39;;;;;;;6.90;3.60;;;;;;;28.67;nan;95652.28;5055118;28;20075;-85
2022/05/12 11:41:34;;;;;;;8.75;3.22;;;;;;;29.08;nan;95639.34;5062032;28;20073;-87
2022/05/12 11:44:26;;;;;;;8.70;3.05;;;;;;;29.11;nan;95631.19;5064649;28;20081;-86
2022/05/12 11:47:07;;;;;;;;;;;;;;;29.53;nan;95621.63;5062242;28;20047;-84
2022/05/12 11:50:00;;;;;;;6.65;2.92;;;;;;;29.53;nan;95632.56;5070528;28;20354;-86
2022/05/12 11:53:06;;;;;;;9.52;2.83;;;;;;;29.51;nan;95626.72;5076878;28;20044;-85
2022/05/12 11:55:44;;;;;;;7.43;2.53;;;;;;;29.04;nan;95532.84;5053795;28;20621;-87
2022/05/12 11:58:13;;;;;;;7.15;2.65;;;;;;;29.39;nan;95616.91;5062540;28;20028;-85
2022/05/12 12:00:41;;;;;;;6.40;3.40;;;;;;;29.15;nan;95618.31;5047329;28;20141;-89
2022/05/12 12:03:19;;;;;;;6.88;3.33;;;;;;;29.32;nan;95610.59;5061167;28;20028;-87
2022/05/12 12:05:48;;;;;;;7.28;2.70;;;;;;;29.91;nan;95606.53;5075389;28;20035;-88
2022/05/12 12:08:37;;;;;;;7.10;3.08;;;;;;;30.37;nan;95601.16;5095824;28;20040;-86
2022/05/12 12:11:17;;;;;;;8.05;2.97;;;;;;;30.41;nan;95595.69;5072195;28;20117;-86
2022/05/12 12:14:04;;;;;;;6.18;2.80;;;;;;;30.41;nan;95582.78;5059716;28;20818;-86
2022/05/12 12:17:05;;;;;;;9.32;3.08;;;;;;;30.84;nan;95589.03;5052355;28;20043;-85